Time;durP1;ratioP1;P1;durP2;ratioP2;P2;SDS_P1;SDS_P2;PMS_P1;PMS_P2;Temp;Humidity;BMP_temperature;BMP_pressure;BME280_temperature;BME280_humidity;BME280_pressure;Samples;Min_cycle;Max_cycle;Signal;HPM_P1;HPM_P2
2023/03/26 00:01:32;;;;;;;13.13;1.65;;;7.90;99.90;;;;;;4766699;30;20047;-83
2023/03/26 00:03:59;;;;;;;10.77;1.95;;;7.90;99.90;;;;;;4765233;30;20044;-83
2023/03/26 00:06:27;;;;;;;8.65;1.67;;;7.80;99.90;;;;;;4742118;30;20076;-83
2023/03/26 00:08:54;;;;;;;9.23;1.95;;;7.80;99.90;;;;;;4764716;30;20044;-83
2023/03/26 00:11:21;;;;;;;9.00;1.77;;;7.80;99.90;;;;;;4737775;30;20477;-82
2023/03/26 00:13:48;;;;;;;11.50;1.90;;;7.70;99.90;;;;;;4766023;30;20085;-83
2023/03/26 00:16:16;;;;;;;10.57;1.98;;;7.80;99.90;;;;;;4736331;30;20130;-82
2023/03/26 00:18:43;;;;;;;15.95;1.65;;;7.70;99.90;;;;;;4765442;30;20123;-83
2023/03/26 00:21:13;;;;;;;12.48;2.03;;;7.70;99.90;;;;;;4765881;30;20612;-83
2023/03/26 00:23:40;;;;;;;12.02;1.85;;;7.70;99.90;;;;;;4765312;30;20047;-83
2023/03/26 00:26:09;;;;;;;12.07;1.98;;;7.70;99.90;;;;;;4765307;30;20526;-83
2023/03/26 00:28:37;;;;;;;11.35;2.05;;;7.60;99.90;;;;;;4763272;30;20094;-83
2023/03/26 00:31:04;;;;;;;13.07;1.60;;;7.70;99.90;;;;;;4751217;30;20071;-82
2023/03/26 00:33:30;;;;;;;13.60;2.33;;;7.70;99.90;;;;;;4763684;30;20060;-82
2023/03/26 00:35:59;;;;;;;12.93;1.63;;;7.70;99.90;;;;;;4764472;30;20052;-82
2023/03/26 00:38:27;;;;;;;16.23;2.10;;;7.70;99.90;;;;;;4748122;30;20040;-83
2023/03/26 00:40:53;;;;;;;13.18;1.80;;;7.70;99.90;;;;;;4763071;30;20044;-82
2023/03/26 00:43:21;;;;;;;10.30;2.40;;;7.60;99.90;;;;;;4732963;30;20044;-83
2023/03/26 00:45:53;;;;;;;13.40;1.98;;;7.60;99.90;;;;;;4765798;30;20044;-83
2023/03/26 00:48:20;;;;;;;17.15;2.10;;;7.60;99.90;;;;;;4749007;30;20109;-83
2023/03/26 00:50:47;;;;;;;16.08;2.25;;;7.60;99.90;;;;;;4749755;30;20653;-83
2023/03/26 00:53:15;;;;;;;10.02;1.60;;;7.60;99.90;;;;;;4764982;30;20048;-82
2023/03/26 00:55:44;;;;;;;12.63;2.33;;;7.50;99.90;;;;;;4764246;30;20066;-83
2023/03/26 00:58:10;;;;;;;11.65;1.52;;;7.50;99.90;;;;;;4763295;30;20048;-83
2023/03/26 01:00:51;;;;;;;22.50;2.50;;;7.50;99.90;;;;;;4763821;30;20101;-82
2023/03/26 01:03:20;;;;;;;17.60;3.38;;;7.40;99.90;;;;;;4763716;30;20060;-83
2023/03/26 01:05:57;;;;;;;16.48;2.35;;;7.40;99.90;;;;;;4748319;30;20044;-83
2023/03/26 01:08:40;;;;;;;10.27;1.88;;;7.40;99.90;;;;;;4762895;30;20098;-82
2023/03/26 01:11:22;;;;;;;14.40;2.08;;;7.30;99.90;;;;;;4763818;30;20420;-83
2023/03/26 01:14:22;;;;;;;12.68;1.95;;;7.30;99.90;;;;;;4761680;30;20059;-82
2023/03/26 01:16:54;;;;;;;14.85;1.98;;;7.40;99.90;;;;;;4750045;30;20074;-82
2023/03/26 01:19:43;;;;;;;12.27;2.10;;;7.10;99.90;;;;;;4749710;30;20475;-83
2023/03/26 01:22:13;;;;;;;13.93;1.85;;;7.10;99.90;;;;;;4765005;30;20190;-82
2023/03/26 01:24:40;;;;;;;12.82;2.90;;;7.10;99.90;;;;;;4763810;30;20078;-82
2023/03/26 01:27:37;;;;;;;14.85;2.45;;;7.00;99.90;;;;;;4748632;30;20043;-82
2023/03/26 01:30:19;;;;;;;15.65;2.05;;;7.00;99.90;;;;;;4735829;30;20044;-82
2023/03/26 01:33:05;;;;;;;12.85;1.48;;;6.90;99.90;;;;;;4764150;30;20040;-83
2023/03/26 01:35:48;;;;;;;12.05;2.03;;;6.90;99.90;;;;;;4763067;30;20047;-83
2023/03/26 01:38:39;;;;;;;7.65;1.23;;;6.80;99.90;;;;;;4748442;30;20203;-82
2023/03/26 01:41:11;;;;;;;14.13;1.67;;;6.70;99.90;;;;;;4759204;30;20117;-82
2023/03/26 01:44:20;;;;;;;9.48;1.65;;;6.70;99.90;;;;;;4746146;30;20493;-82
2023/03/26 01:46:47;;;;;;;16.08;2.22;;;6.70;99.90;;;;;;4733837;30;20049;-82
2023/03/26 01:49:12;;;;;;;10.43;1.90;;;6.60;99.90;;;;;;4761696;30;20051;-82
2023/03/26 01:51:40;;;;;;;11.05;1.63;;;6.60;99.90;;;;;;4761782;30;20048;-83
2023/03/26 01:54:10;;;;;;;9.90;1.73;;;6.70;99.90;;;;;;4762725;30;20059;-83
2023/03/26 01:57:00;;;;;;;12.98;2.10;;;6.90;99.90;;;;;;4762122;30;20051;-82
2023/03/26 02:00:11;;;;;;;11.80;1.60;;;6.60;99.90;;;;;;4761546;30;20081;-82
2023/03/26 02:02:53;;;;;;;16.80;2.72;;;6.70;99.90;;;;;;4746443;30;20082;-82
2023/03/26 02:05:45;;;;;;;16.25;2.45;;;6.70;99.90;;;;;;4746441;30;20040;-82
2023/03/26 02:08:23;;;;;;;16.83;2.65;;;6.70;99.90;;;;;;4762047;30;20122;-82
2023/03/26 02:10:57;;;;;;;14.82;1.80;;;6.80;99.90;;;;;;4749002;30;20133;-82
2023/03/26 02:13:24;;;;;;;16.67;1.83;;;6.80;99.90;;;;;;4748286;30;20055;-83
2023/03/26 02:15:58;;;;;;;16.40;1.83;;;6.80;99.90;;;;;;4761860;30;20055;-83
2023/03/26 02:18:24;;;;;;;12.88;1.90;;;6.80;99.90;;;;;;4761548;30;20048;-82
2023/03/26 02:20:54;;;;;;;14.95;1.30;;;6.90;99.90;;;;;;4763170;30;20414;-82
2023/03/26 02:23:20;;;;;;;12.05;2.28;;;6.90;99.90;;;;;;4761025;30;20043;-82
2023/03/26 02:25:46;;;;;;;13.40;1.67;;;6.90;99.90;;;;;;4762168;30;20125;-82
2023/03/26 02:28:11;;;;;;;14.52;1.95;;;6.90;99.90;;;;;;4734476;30;20044;-82
2023/03/26 02:30:38;;;;;;;10.75;1.55;;;6.90;99.90;;;;;;4761402;30;20131;-83
2023/03/26 02:33:04;;;;;;;9.32;1.65;;;6.90;99.90;;;;;;4761705;30;20043;-83
2023/03/26 02:35:30;;;;;;;11.10;1.65;;;6.90;99.90;;;;;;4748171;30;20889;-82
2023/03/26 02:37:55;;;;;;;17.60;1.83;;;6.90;99.90;;;;;;4747210;30;20048;-83
2023/03/26 02:40:21;;;;;;;14.65;2.67;;;6.80;99.90;;;;;;4747509;30;20042;-83
2023/03/26 02:42:47;;;;;;;12.60;1.67;;;6.80;99.90;;;;;;4749310;30;20044;-82
2023/03/26 02:45:13;;;;;;;10.27;1.75;;;6.80;99.90;;;;;;4762785;30;20036;-83
2023/03/26 02:47:39;;;;;;;16.25;1.73;;;6.80;99.90;;;;;;4758613;30;20493;-83
2023/03/26 02:50:04;;;;;;;13.68;1.75;;;6.70;99.90;;;;;;4735102;30;20063;-83
2023/03/26 02:52:30;;;;;;;11.43;2.65;;;6.70;99.90;;;;;;4731293;30;20040;-82
2023/03/26 02:54:56;;;;;;;11.38;1.50;;;6.70;99.90;;;;;;4743700;30;20071;-82
2023/03/26 02:57:23;;;;;;;11.38;2.53;;;6.70;99.90;;;;;;4742661;30;20605;-82
2023/03/26 02:59:49;;;;;;;12.98;1.60;;;6.60;99.90;;;;;;4744721;30;20509;-83
2023/03/26 03:02:15;;;;;;;8.77;1.98;;;6.60;99.90;;;;;;4746274;30;20045;-83
2023/03/26 03:04:41;;;;;;;9.40;1.60;;;6.60;99.90;;;;;;4748136;30;20084;-83
2023/03/26 03:07:07;;;;;;;13.18;2.08;;;6.50;99.90;;;;;;4748186;30;20539;-83
2023/03/26 03:09:33;;;;;;;11.73;1.70;;;6.50;99.90;;;;;;4748737;30;20136;-83
2023/03/26 03:11:59;;;;;;;18.98;2.25;;;6.40;99.90;;;;;;4746269;30;20044;-83
2023/03/26 03:14:24;;;;;;;11.95;1.35;;;6.40;99.90;;;;;;4745098;30;20049;-83
2023/03/26 03:16:50;;;;;;;17.95;2.28;;;6.40;99.90;;;;;;4749637;30;20424;-82
2023/03/26 03:19:19;;;;;;;12.23;2.03;;;6.40;99.90;;;;;;4735735;30;20109;-82
2023/03/26 03:21:44;;;;;;;12.02;1.73;;;6.30;99.90;;;;;;4749656;30;20060;-82
2023/03/26 03:24:12;;;;;;;12.55;1.15;;;6.30;99.90;;;;;;4749166;30;20049;-82
2023/03/26 03:26:40;;;;;;;12.68;1.27;;;6.20;99.90;;;;;;4750179;30;20048;-83
2023/03/26 03:29:05;;;;;;;8.27;1.15;;;6.10;99.90;;;;;;4747001;30;20125;-83
2023/03/26 03:31:33;;;;;;;13.75;2.40;;;6.00;99.90;;;;;;4732107;30;20037;-82
2023/03/26 03:34:09;;;;;;;9.68;1.10;;;5.90;99.90;;;;;;4722246;30;20055;-83
2023/03/26 03:36:37;;;;;;;14.05;2.13;;;5.90;99.90;;;;;;4718882;30;20041;-83
2023/03/26 03:39:03;;;;;;;16.80;2.35;;;5.80;99.90;;;;;;4721704;30;20843;-82
2023/03/26 03:41:29;;;;;;;8.70;1.48;;;5.90;99.90;;;;;;4747506;30;20084;-83
2023/03/26 03:43:55;;;;;;;12.55;2.47;;;5.90;99.90;;;;;;4745456;30;20052;-82
2023/03/26 03:46:20;;;;;;;12.68;2.00;;;5.90;99.90;;;;;;4718128;30;20087;-82
2023/03/26 03:48:49;;;;;;;16.08;2.60;;;5.80;99.90;;;;;;4754712;30;20058;-82
2023/03/26 03:51:16;;;;;;;17.70;2.65;;;5.80;99.90;;;;;;4746309;30;20053;-83
2023/03/26 03:53:41;;;;;;;16.25;2.10;;;5.80;99.90;;;;;;4752409;30;20540;-82
2023/03/26 03:56:09;;;;;;;10.55;2.30;;;5.80;99.90;;;;;;4733792;30;20174;-82
2023/03/26 03:58:44;;;;;;;15.30;1.58;;;5.80;99.90;;;;;;4736533;30;20051;-82
2023/03/26 04:01:12;;;;;;;25.80;2.75;;;5.70;99.90;;;;;;4763200;30;20040;-82
2023/03/26 04:03:40;;;;;;;9.80;1.77;;;5.70;99.90;;;;;;4760183;30;20064;-82
2023/03/26 04:06:06;;;;;;;14.30;2.78;;;5.70;99.90;;;;;;4770121;30;20044;-84
2023/03/26 04:08:33;;;;;;;10.70;1.98;;;5.70;99.90;;;;;;4767935;30;20044;-84
2023/03/26 04:10:58;;;;;;;16.98;3.15;;;5.70;99.90;;;;;;4737749;30;20050;-84
2023/03/26 04:13:24;;;;;;;10.98;1.67;;;5.70;99.90;;;;;;4751378;30;20127;-84
2023/03/26 04:15:50;;;;;;;5.35;0.80;;;5.70;99.90;;;;;;4767472;30;20161;-84
2023/03/26 04:18:15;;;;;;;9.98;1.25;;;5.70;99.90;;;;;;4742562;30;20147;-83
2023/03/26 04:20:46;;;;;;;6.65;1.30;;;5.70;99.90;;;;;;4737724;30;20052;-84
2023/03/26 04:23:13;;;;;;;11.32;1.45;;;5.70;99.90;;;;;;4764273;30;20102;-84
2023/03/26 04:25:41;;;;;;;13.70;1.45;;;5.60;99.90;;;;;;4765964;30;20037;-84
2023/03/26 04:28:07;;;;;;;8.35;2.60;;;5.60;99.90;;;;;;4761290;30;20040;-84
2023/03/26 04:30:34;;;;;;;8.75;1.98;;;5.60;99.90;;;;;;4766089;30;20768;-84
2023/03/26 04:33:02;;;;;;;14.68;2.42;;;5.70;99.90;;;;;;4751669;30;20139;-84
2023/03/26 04:35:35;;;;;;;12.20;2.40;;;5.70;99.90;;;;;;4764106;30;20048;-83
2023/03/26 04:38:05;;;;;;;16.42;2.80;;;5.80;99.90;;;;;;4737205;30;20052;-83
2023/03/26 04:40:33;;;;;;;17.52;3.05;;;5.70;99.90;;;;;;4765997;30;20055;-84
2023/03/26 04:43:01;;;;;;;15.68;2.42;;;5.80;99.90;;;;;;4765452;30;20151;-83
2023/03/26 04:45:29;;;;;;;20.55;3.17;;;5.90;99.90;;;;;;4740321;30;20040;-85
2023/03/26 04:47:56;;;;;;;16.42;3.13;;;5.90;99.90;;;;;;4761671;30;20382;-84
2023/03/26 04:50:23;;;;;;;14.65;3.00;;;5.90;99.90;;;;;;4732474;30;20048;-84
2023/03/26 04:52:49;;;;;;;14.30;2.33;;;5.90;99.90;;;;;;4764422;30;20668;-84
2023/03/26 04:55:25;;;;;;;9.82;2.30;;;5.90;99.90;;;;;;4735376;30;20079;-83
2023/03/26 04:57:55;;;;;;;14.50;2.47;;;6.00;99.90;;;;;;4763837;30;20085;-84
2023/03/26 05:00:21;;;;;;;16.27;2.72;;;6.00;99.90;;;;;;4749331;30;20044;-84
2023/03/26 05:02:49;;;;;;;18.25;3.22;;;6.10;99.90;;;;;;4761392;30;20041;-84
2023/03/26 05:05:16;;;;;;;16.63;3.13;;;6.10;99.90;;;;;;4764076;30;20048;-84
2023/03/26 05:07:42;;;;;;;12.95;3.58;;;6.10;99.90;;;;;;4760054;30;20048;-84
2023/03/26 05:10:11;;;;;;;10.65;3.15;;;6.10;99.90;;;;;;4750481;30;20051;-84
2023/03/26 05:12:36;;;;;;;16.52;3.00;;;6.20;99.90;;;;;;4762826;30;20044;-84
2023/03/26 05:15:02;;;;;;;16.52;2.72;;;6.20;99.90;;;;;;4735711;30;20040;-86
2023/03/26 05:17:29;;;;;;;18.90;3.25;;;6.20;99.90;;;;;;4763767;30;20094;-85
2023/03/26 05:19:56;;;;;;;13.23;3.78;;;6.20;99.90;;;;;;4764604;30;20052;-84
2023/03/26 05:22:21;;;;;;;12.05;3.28;;;6.20;99.90;;;;;;4765157;30;20140;-83
2023/03/26 05:24:47;;;;;;;14.90;2.72;;;6.20;99.90;;;;;;4766255;30;20131;-84
2023/03/26 05:27:16;;;;;;;13.90;2.90;;;6.20;99.90;;;;;;4751156;30;20036;-86
2023/03/26 05:29:42;;;;;;;15.48;3.17;;;6.20;99.90;;;;;;4763974;30;20055;-84
2023/03/26 05:32:09;;;;;;;10.07;2.90;;;6.20;99.90;;;;;;4760787;30;20080;-84
2023/03/26 05:34:40;;;;;;;13.40;2.47;;;6.20;99.90;;;;;;4760134;30;20105;-84
2023/03/26 05:37:07;;;;;;;7.45;2.53;;;6.20;99.90;;;;;;4772037;30;20139;-84
2023/03/26 05:39:34;;;;;;;12.65;2.78;;;6.20;99.90;;;;;;4734885;30;20127;-85
2023/03/26 05:42:00;;;;;;;9.52;2.30;;;6.20;99.90;;;;;;4731478;30;20055;-84
2023/03/26 05:44:25;;;;;;;15.00;3.03;;;6.30;99.90;;;;;;4765473;30;20052;-85
2023/03/26 05:46:51;;;;;;;10.82;2.50;;;6.30;99.90;;;;;;4764224;30;20454;-85
2023/03/26 05:49:17;;;;;;;12.90;3.53;;;6.30;99.90;;;;;;4762227;30;20199;-84
2023/03/26 05:51:42;;;;;;;15.18;3.25;;;6.30;99.90;;;;;;4760883;30;20557;-84
2023/03/26 05:54:08;;;;;;;17.38;3.13;;;6.40;99.90;;;;;;4745856;30;20102;-84
2023/03/26 05:56:34;;;;;;;15.93;3.65;;;6.40;99.90;;;;;;4760659;30;20043;-85
2023/03/26 05:59:00;;;;;;;14.05;3.33;;;6.40;99.90;;;;;;4758613;30;20523;-84
2023/03/26 06:01:28;;;;;;;9.05;2.80;;;6.40;99.90;;;;;;4760548;30;20052;-84
2023/03/26 06:03:53;;;;;;;13.38;2.55;;;6.40;99.90;;;;;;4731060;30;20052;-84
2023/03/26 06:06:20;;;;;;;14.50;3.63;;;6.40;99.90;;;;;;4762805;30;20437;-84
2023/03/26 06:08:48;;;;;;;16.67;2.80;;;6.50;99.90;;;;;;4764953;30;20528;-83
2023/03/26 06:11:15;;;;;;;15.45;3.28;;;6.50;99.90;;;;;;4734208;30;20186;-84
2023/03/26 06:13:41;;;;;;;21.73;4.30;;;6.50;99.90;;;;;;4763385;30;20055;-84
2023/03/26 06:16:12;;;;;;;8.90;2.97;;;6.60;99.90;;;;;;4746628;30;20072;-84
2023/03/26 06:18:38;;;;;;;12.63;3.10;;;6.60;99.90;;;;;;4760785;30;20040;-85
2023/03/26 06:21:05;;;;;;;16.42;3.20;;;6.60;99.90;;;;;;4747752;30;20056;-84
2023/03/26 06:23:31;;;;;;;15.77;3.15;;;6.60;99.90;;;;;;4731354;30;20055;-84
2023/03/26 06:25:57;;;;;;;14.35;3.75;;;6.70;99.90;;;;;;4761685;30;20150;-83
2023/03/26 06:28:23;;;;;;;11.20;2.92;;;6.70;99.90;;;;;;4757013;30;20563;-83
2023/03/26 06:30:50;;;;;;;16.30;3.50;;;6.80;99.90;;;;;;4755802;30;20043;-84
2023/03/26 06:33:16;;;;;;;16.10;3.80;;;6.80;99.90;;;;;;4734937;30;20075;-84
2023/03/26 06:35:44;;;;;;;9.30;2.97;;;6.80;99.90;;;;;;4759872;30;20070;-83
2023/03/26 06:38:10;;;;;;;14.25;3.45;;;6.90;99.90;;;;;;4749881;30;20121;-84
2023/03/26 06:40:36;;;;;;;16.75;2.95;;;6.90;99.90;;;;;;4765709;30;20044;-83
2023/03/26 06:43:01;;;;;;;13.60;3.42;;;7.00;99.90;;;;;;4765802;30;20044;-84
2023/03/26 06:45:28;;;;;;;24.20;3.72;;;7.10;99.90;;;;;;4733810;30;20064;-83
2023/03/26 06:47:54;;;;;;;19.48;3.05;;;7.10;99.90;;;;;;4761060;30;20083;-83
2023/03/26 06:50:19;;;;;;;18.88;3.38;;;7.10;99.90;;;;;;4747990;30;20456;-83
2023/03/26 06:52:45;;;;;;;14.50;2.80;;;7.20;99.90;;;;;;4768170;30;20051;-83
2023/03/26 06:55:14;;;;;;;18.10;2.92;;;7.20;99.90;;;;;;4766626;30;20409;-84
2023/03/26 06:57:44;;;;;;;29.17;4.40;;;7.20;99.90;;;;;;4761291;30;20423;-85
2023/03/26 07:00:18;;;;;;;18.17;2.80;;;7.10;99.90;;;;;;4746174;30;20159;-83
2023/03/26 07:02:44;;;;;;;18.50;2.42;;;7.20;99.90;;;;;;4763190;30;20048;-85
2023/03/26 07:05:15;;;;;;;16.15;2.20;;;7.10;99.90;;;;;;4762368;30;20048;-84
2023/03/26 07:07:41;;;;;;;20.48;3.40;;;7.10;99.90;;;;;;4765521;30;20048;-86
2023/03/26 07:10:39;;;;;;;17.38;2.65;;;7.20;99.90;;;;;;4766400;30;20130;-85
2023/03/26 07:13:05;;;;;;;17.75;2.42;;;7.10;99.90;;;;;;4768220;30;20055;-84
2023/03/26 07:15:50;;;;;;;18.02;3.42;;;7.10;99.90;;;;;;4763454;30;20044;-85
2023/03/26 07:18:23;;;;;;;24.08;3.17;;;7.10;99.90;;;;;;4738230;30;21051;-84
2023/03/26 07:20:49;;;;;;;20.35;3.13;;;7.30;99.90;;;;;;4763093;30;20051;-83
2023/03/26 07:23:18;;;;;;;15.23;3.28;;;7.30;99.90;;;;;;4763527;30;20040;-85
2023/03/26 07:25:46;;;;;;;14.57;2.25;;;7.40;99.90;;;;;;4766252;30;20082;-81
2023/03/26 07:28:36;;;;;;;19.10;2.60;;;7.50;99.90;;;;;;4749037;30;20101;-83
2023/03/26 07:31:27;;;;;;;17.35;3.25;;;7.60;99.90;;;;;;4760514;30;20110;-83
2023/03/26 07:34:02;;;;;;;22.92;3.53;;;7.80;99.90;;;;;;4760785;30;20059;-84
2023/03/26 07:36:31;;;;;;;;;;;7.80;99.90;;;;;;4761149;30;20389;-84
2023/03/26 07:39:08;;;;;;;19.90;3.00;;;7.90;99.90;;;;;;4748091;30;20351;-83
2023/03/26 07:42:08;;;;;;;18.73;2.70;;;7.80;99.90;;;;;;4758332;30;20059;-88
2023/03/26 07:45:17;;;;;;;14.38;2.67;;;7.70;99.90;;;;;;4736985;30;20060;-85
2023/03/26 07:47:43;;;;;;;21.85;3.05;;;7.50;99.90;;;;;;4763032;30;20048;-85
2023/03/26 07:50:30;;;;;;;17.42;3.00;;;7.50;99.90;;;;;;4757034;30;20060;-85
2023/03/26 07:53:06;;;;;;;19.00;2.97;;;7.60;99.90;;;;;;4736381;30;20070;-85
2023/03/26 07:56:03;;;;;;;17.35;3.13;;;7.60;99.90;;;;;;4743803;30;20064;-85
2023/03/26 07:58:38;;;;;;;16.40;2.45;;;7.70;99.90;;;;;;4760041;30;20056;-85
2023/03/26 08:01:18;;;;;;;21.10;2.67;;;7.90;99.90;;;;;;4758769;30;20055;-85
2023/03/26 08:03:56;;;;;;;12.30;2.15;;;8.10;99.90;;;;;;4739443;30;20047;-85
2023/03/26 08:06:40;;;;;;;18.10;3.10;;;7.80;99.90;;;;;;4753707;30;20517;-85
2023/03/26 08:09:43;;;;;;;19.40;2.80;;;7.80;99.90;;;;;;4754694;30;20048;-86
2023/03/26 08:12:30;;;;;;;16.08;3.83;;;7.70;99.90;;;;;;4748054;30;20630;-84
2023/03/26 08:15:28;;;;;;;15.85;1.98;;;7.60;99.90;;;;;;4761153;30;20060;-85
2023/03/26 08:18:06;;;;;;;16.13;2.40;;;7.70;99.90;;;;;;4714417;30;20193;-85
2023/03/26 08:21:16;;;;;;;20.48;2.88;;;7.80;99.90;;;;;;4741079;30;20055;-85
2023/03/26 08:23:54;;;;;;;12.10;2.28;;;7.80;99.90;;;;;;4741607;30;20052;-84
2023/03/26 08:26:43;;;;;;;19.55;3.70;;;7.70;99.90;;;;;;4737319;30;20056;-84
2023/03/26 08:29:14;;;;;;;15.00;3.30;;;7.70;99.90;;;;;;4757154;30;20071;-83
2023/03/26 08:31:45;;;;;;;17.40;2.65;;;7.70;99.90;;;;;;4743059;30;20405;-84
2023/03/26 08:34:15;;;;;;;14.70;2.90;;;7.80;99.90;;;;;;4763726;30;20048;-84
2023/03/26 08:36:41;;;;;;;14.15;3.08;;;7.80;99.90;;;;;;4762338;30;20600;-85
2023/03/26 08:39:07;;;;;;;13.90;2.13;;;7.70;99.90;;;;;;4758777;30;20052;-86
2023/03/26 08:41:55;;;;;;;14.95;2.85;;;7.60;99.90;;;;;;4760091;30;20044;-85
2023/03/26 08:44:30;;;;;;;18.63;3.40;;;7.60;99.90;;;;;;4762142;30;20044;-85
2023/03/26 08:47:20;;;;;;;13.00;2.35;;;7.70;99.90;;;;;;4733584;30;20105;-84
2023/03/26 08:50:05;;;;;;;17.80;3.05;;;7.80;99.90;;;;;;4762105;30;20075;-83
2023/03/26 08:52:55;;;;;;;25.33;3.08;;;7.80;99.90;;;;;;4745620;30;20048;-84
2023/03/26 08:55:39;;;;;;;17.88;2.47;;;7.80;99.90;;;;;;4748136;30;20040;-85
2023/03/26 08:58:23;;;;;;;17.65;2.00;;;7.80;99.90;;;;;;4764625;30;20051;-85
2023/03/26 09:01:27;;;;;;;13.95;2.67;;;7.90;99.90;;;;;;4748349;30;20060;-85
2023/03/26 09:04:01;;;;;;;20.83;3.13;;;7.90;99.90;;;;;;4760275;30;20051;-85
2023/03/26 09:06:39;;;;;;;20.10;2.85;;;8.00;99.90;;;;;;4763249;30;20078;-84
2023/03/26 09:09:27;;;;;;;22.17;3.58;;;8.90;99.90;;;;;;4745627;30;20040;-85
2023/03/26 09:12:13;;;;;;;9.60;1.83;;;7.90;99.90;;;;;;4746370;30;20063;-85
2023/03/26 09:14:39;;;;;;;16.60;2.90;;;7.90;99.90;;;;;;4762358;30;20066;-85
2023/03/26 09:17:43;;;;;;;16.58;2.70;;;7.90;99.90;;;;;;4762465;30;20056;-87
2023/03/26 09:20:37;;;;;;;14.80;2.88;;;7.90;99.90;;;;;;4730793;30;20053;-86
2023/03/26 09:23:05;;;;;;;25.38;3.55;;;8.00;99.90;;;;;;4744213;30;20497;-85
2023/03/26 09:25:34;;;;;;;18.42;3.40;;;8.00;99.90;;;;;;4748007;30;20369;-85
2023/03/26 09:28:20;;;;;;;22.90;2.85;;;8.10;99.90;;;;;;4734098;30;20068;-86
2023/03/26 09:31:30;;;;;;;19.38;2.63;;;8.10;99.90;;;;;;4748511;30;20508;-87
2023/03/26 09:34:02;;;;;;;22.30;3.22;;;8.20;99.90;;;;;;4747101;30;20079;-86
2023/03/26 09:36:52;;;;;;;14.55;2.30;;;8.30;99.90;;;;;;4764152;30;20078;-85
2023/03/26 09:39:34;;;;;;;14.25;3.13;;;8.30;99.90;;;;;;4765047;30;20163;-85
2023/03/26 09:42:15;;;;;;;16.52;3.10;;;8.30;99.90;;;;;;4746778;30;20052;-85
2023/03/26 09:44:59;;;;;;;14.43;2.60;;;8.30;99.90;;;;;;4745531;30;20051;-85
2023/03/26 09:48:04;;;;;;;15.77;2.60;;;8.90;99.90;;;;;;4760957;30;20052;-86
2023/03/26 09:50:42;;;;;;;15.85;3.25;;;8.30;99.90;;;;;;4734417;30;20119;-86
2023/03/26 09:53:57;;;;;;;17.30;2.28;;;8.40;99.90;;;;;;4751276;30;20044;-86
2023/03/26 09:57:10;;;;;;;12.43;2.17;;;8.40;99.90;;;;;;4728893;30;20170;-85
2023/03/26 10:00:12;;;;;;;14.23;1.80;;;8.20;99.90;;;;;;4668310;30;20057;-86
2023/03/26 10:03:20;;;;;;;16.48;2.78;;;8.30;99.90;;;;;;4747303;30;20052;-85
2023/03/26 10:06:11;;;;;;;16.13;2.75;;;8.10;99.90;;;;;;4733017;30;20113;-86
2023/03/26 10:09:05;;;;;;;18.42;3.70;;;8.20;99.90;;;;;;4738292;30;20562;-85
2023/03/26 10:12:10;;;;;;;10.40;2.63;;;8.40;99.90;;;;;;4749369;30;20048;-86
2023/03/26 10:15:07;;;;;;;9.18;1.70;;;8.50;99.90;;;;;;4735241;30;20136;-85
2023/03/26 10:18:06;;;;;;;14.73;2.10;;;8.60;99.90;;;;;;4749949;30;20408;-86
2023/03/26 10:21:19;;;;;;;16.02;2.00;;;8.60;99.90;;;;;;4761365;30;20052;-86
2023/03/26 10:24:01;;;;;;;10.00;2.33;;;8.70;99.90;;;;;;4734093;30;20066;-86
2023/03/26 10:27:27;;;;;;;13.57;1.70;;;8.70;99.90;;;;;;4763559;30;20409;-86
2023/03/26 10:30:28;;;;;;;17.65;2.47;;;8.70;99.90;;;;;;4751582;30;20048;-85
2023/03/26 10:33:24;;;;;;;22.15;2.80;;;8.70;99.90;;;;;;4751250;30;20062;-86
2023/03/26 10:36:12;;;;;;;20.25;2.92;;;8.60;99.90;;;;;;4746256;30;20071;-85
2023/03/26 10:38:59;;;;;;;15.82;2.38;;;8.60;99.90;;;;;;4748935;30;20040;-86
2023/03/26 10:42:18;;;;;;;9.27;1.90;;;8.60;99.90;;;;;;4761800;30;20055;-86
2023/03/26 10:45:02;;;;;;;10.30;1.73;;;8.80;99.90;;;;;;4748864;30;20052;-86
2023/03/26 10:48:41;;;;;;;11.43;1.58;;;8.80;99.90;;;;;;4755898;30;20051;-86
2023/03/26 10:51:37;;;;;;;8.15;1.80;;;8.80;99.90;;;;;;4752193;30;20101;-85
2023/03/26 10:55:14;;;;;;;12.50;1.95;;;9.00;99.90;;;;;;4751801;30;20056;-86
2023/03/26 10:58:41;;;;;;;12.73;2.33;;;9.10;99.90;;;;;;4763826;30;20044;-86
2023/03/26 11:01:26;;;;;;;12.18;2.00;;;9.10;99.90;;;;;;4754103;30;20060;-86
2023/03/26 11:03:54;;;;;;;15.60;2.60;;;9.40;99.90;;;;;;4750595;30;20052;-86
2023/03/26 11:06:51;;;;;;;17.15;2.15;;;9.20;99.90;;;;;;4763520;30;20128;-86
2023/03/26 11:09:50;;;;;;;12.70;2.28;;;9.20;99.90;;;;;;4748045;30;20032;-85
2023/03/26 11:12:42;;;;;;;11.52;2.97;;;9.10;99.90;;;;;;4745143;30;20094;-86
2023/03/26 11:15:55;;;;;;;11.30;2.00;;;9.10;99.90;;;;;;4754499;30;20044;-85
2023/03/26 11:18:59;;;;;;;9.25;1.35;;;9.20;99.90;;;;;;4736914;30;20462;-86
2023/03/26 11:22:14;;;;;;;9.20;1.45;;;9.00;99.90;;;;;;4745290;30;20048;-85
2023/03/26 11:24:54;;;;;;;6.78;1.25;;;9.00;99.90;;;;;;4748268;30;20075;-85
2023/03/26 11:28:00;;;;;;;15.48;2.15;;;9.00;99.90;;;;;;4765776;30;20044;-87
2023/03/26 11:31:22;;;;;;;12.50;2.28;;;9.00;99.90;;;;;;4747648;30;20091;-86
2023/03/26 11:33:52;;;;;;;11.48;2.30;;;8.90;99.90;;;;;;4767220;30;20598;-85
2023/03/26 11:37:11;;;;;;;10.43;2.40;;;8.70;99.90;;;;;;4736931;30;20056;-86
2023/03/26 11:40:13;;;;;;;14.35;2.15;;;8.70;99.90;;;;;;4744623;30;20048;-86
2023/03/26 11:43:51;;;;;;;13.02;2.05;;;8.40;99.90;;;;;;4736412;30;20103;-86
2023/03/26 11:46:45;;;;;;;17.77;2.60;;;8.30;99.90;;;;;;4736708;30;20139;-86
2023/03/26 11:49:18;;;;;;;13.50;3.00;;;8.90;99.90;;;;;;4736811;30;20047;-86
2023/03/26 11:52:38;;;;;;;11.82;2.38;;;8.20;99.90;;;;;;4755845;30;20051;-87
2023/03/26 11:55:26;;;;;;;13.90;2.43;;;8.20;99.90;;;;;;4755929;30;20440;-86
2023/03/26 11:58:30;;;;;;;12.48;2.60;;;8.30;99.90;;;;;;4731180;30;20451;-86
2023/03/26 12:01:28;;;;;;;11.73;1.90;;;8.30;99.90;;;;;;4752191;30;20061;-86
2023/03/26 12:04:54;;;;;;;10.38;1.85;;;8.40;99.90;;;;;;4752478;30;20566;-86
2023/03/26 12:08:10;;;;;;;14.27;1.67;;;8.30;99.90;;;;;;4731764;30;20078;-86
2023/03/26 12:10:49;;;;;;;12.15;3.00;;;8.20;99.90;;;;;;4753756;30;20046;-86
2023/03/26 12:13:42;;;;;;;13.40;1.95;;;8.90;99.90;;;;;;4732008;30;20052;-86
2023/03/26 12:17:02;;;;;;;11.73;1.58;;;8.10;99.90;;;;;;4725105;30;20538;-87
2023/03/26 12:19:43;;;;;;;14.63;2.13;;;8.20;99.90;;;;;;4720185;30;20056;-86
2023/03/26 12:26:40;;;;;;;9.93;1.83;;;8.20;99.90;;;;;;4737386;30;20235;-86
2023/03/26 12:29:26;;;;;;;12.23;1.73;;;8.10;99.90;;;;;;4728422;30;20067;-86
2023/03/26 12:32:12;;;;;;;13.05;1.63;;;8.10;99.90;;;;;;4763616;30;20056;-86
2023/03/26 12:35:12;;;;;;;13.48;2.20;;;8.20;99.90;;;;;;4765454;30;20052;-86
2023/03/26 12:38:44;;;;;;;11.63;1.83;;;8.30;99.90;;;;;;4746408;30;20048;-86
2023/03/26 12:41:17;;;;;;;12.88;2.22;;;8.30;99.90;;;;;;4734489;30;20056;-86
2023/03/26 12:43:54;;;;;;;15.40;2.40;;;8.30;99.90;;;;;;4764981;30;20484;-86
2023/03/26 12:46:38;;;;;;;13.57;2.15;;;8.50;99.90;;;;;;4750726;30;20044;-86
2023/03/26 12:49:12;;;;;;;9.18;1.42;;;8.40;99.90;;;;;;4765430;30;20056;-86
2023/03/26 12:51:55;;;;;;;8.95;1.75;;;8.40;99.90;;;;;;4747609;30;20519;-84
2023/03/26 12:54:57;;;;;;;10.93;1.95;;;8.30;99.90;;;;;;4761043;30;20085;-87
2023/03/26 12:58:01;;;;;;;16.08;2.75;;;8.40;99.90;;;;;;4751730;30;20059;-88
2023/03/26 13:00:52;;;;;;;9.27;1.80;;;8.30;99.90;;;;;;4763344;30;20125;-88
2023/03/26 13:03:56;;;;;;;15.10;2.15;;;8.40;99.90;;;;;;4746802;30;20500;-87
2023/03/26 13:06:34;;;;;;;11.20;1.52;;;8.20;99.90;;;;;;4762134;30;20048;-87
2023/03/26 13:09:14;;;;;;;12.32;2.58;;;8.40;99.90;;;;;;4749555;30;20058;-85
2023/03/26 13:12:04;;;;;;;11.88;2.38;;;8.40;99.90;;;;;;4744084;30;20496;-85
2023/03/26 13:14:30;;;;;;;14.90;1.52;;;8.30;99.90;;;;;;4765371;29;20048;-86
2023/03/26 13:17:09;;;;;;;16.08;1.70;;;8.20;99.90;;;;;;4751549;30;20048;-87
2023/03/26 13:20:10;;;;;;;16.33;2.47;;;8.20;99.90;;;;;;4747605;30;20052;-86
2023/03/26 13:22:42;;;;;;;15.18;1.80;;;8.20;99.90;;;;;;4729890;30;20121;-86
2023/03/26 13:25:35;;;;;;;11.95;1.75;;;8.20;99.90;;;;;;4746615;30;20531;-85
2023/03/26 13:28:32;;;;;;;11.90;1.58;;;8.30;99.90;;;;;;4744725;30;20079;-85
2023/03/26 13:31:29;;;;;;;7.60;1.40;;;8.30;99.90;;;;;;4763210;29;20127;-86
2023/03/26 16:40:27;;;;;;;18.40;1.83;;;7.00;99.90;;;;;;4745920;30;20043;-82
2023/03/26 16:43:11;;;;;;;8.35;1.70;;;7.00;99.90;;;;;;4741524;30;20856;-82
2023/03/26 16:46:02;;;;;;;7.80;1.42;;;7.00;99.90;;;;;;4747562;30;20101;-81
2023/03/26 16:48:30;;;;;;;12.25;1.38;;;6.80;99.90;;;;;;4761895;30;20036;-82
2023/03/26 16:51:05;;;;;;;19.02;1.83;;;6.90;99.90;;;;;;4759131;30;20054;-82
2023/03/26 16:53:55;;;;;;;14.13;1.40;;;6.90;99.90;;;;;;4750228;30;20106;-82
2023/03/26 16:56:53;;;;;;;8.02;1.08;;;6.90;99.90;;;;;;4748381;30;20435;-82
2023/03/26 16:59:35;;;;;;;12.63;1.80;;;6.80;99.90;;;;;;4728731;30;20078;-82